createdAt,value
2018-05-31T00:02:00.829Z,26.90
2018-05-31T00:04:28.493Z,25.85
2018-05-31T00:06:56.159Z,26.20
2018-05-31T00:09:23.834Z,27.43
2018-05-31T00:11:51.509Z,27.90
2018-05-31T00:14:19.160Z,29.33
2018-05-31T00:16:46.817Z,28.00
2018-05-31T00:19:14.492Z,28.00
2018-05-31T00:21:42.165Z,28.70
2018-05-31T00:24:09.822Z,30.23
2018-05-31T00:26:37.628Z,30.35
2018-05-31T00:29:05.709Z,29.80
2018-05-31T00:31:33.373Z,30.20
2018-05-31T00:34:01.037Z,28.73
2018-05-31T00:36:28.701Z,28.98
2018-05-31T00:38:56.376Z,30.02
2018-05-31T00:41:24.037Z,29.90
2018-05-31T00:43:51.706Z,31.35
2018-05-31T00:46:19.358Z,29.33
2018-05-31T00:48:47.008Z,29.10
2018-05-31T00:51:14.666Z,30.30
2018-05-31T00:53:42.324Z,28.00
2018-05-31T00:56:16.429Z,31.00
2018-05-31T00:58:44.102Z,30.43
2018-05-31T01:01:11.766Z,33.17
2018-05-31T01:03:39.414Z,31.13
2018-05-31T01:06:07.078Z,31.87
2018-05-31T01:08:34.745Z,31.90
2018-05-31T01:11:02.389Z,32.80
2018-05-31T01:13:30.042Z,33.43
2018-05-31T01:15:57.711Z,32.33
2018-05-31T01:18:25.373Z,32.58
2018-05-31T01:20:53.040Z,30.40
2018-05-31T01:23:20.700Z,31.30
2018-05-31T01:25:48.353Z,31.27
2018-05-31T01:28:16.034Z,31.27
2018-05-31T01:30:43.698Z,30.92
2018-05-31T01:33:11.358Z,28.97
2018-05-31T01:35:39.014Z,31.33
2018-05-31T01:38:19.168Z,28.33
2018-05-31T01:40:46.830Z,28.20
2018-05-31T01:43:14.474Z,29.37
2018-05-31T01:45:42.183Z,29.97
2018-05-31T01:48:09.837Z,29.63
2018-05-31T01:50:37.485Z,26.20
2018-05-31T01:53:05.141Z,27.40
2018-05-31T01:55:32.841Z,25.77
2018-05-31T01:58:00.557Z,27.00
2018-05-31T02:00:28.223Z,24.45
2018-05-31T02:02:55.878Z,25.50
2018-05-31T02:05:23.525Z,24.17
2018-05-31T02:07:51.181Z,23.37
2018-05-31T02:10:18.875Z,23.60
2018-05-31T02:12:46.533Z,24.80
2018-05-31T02:15:14.202Z,23.60
2018-05-31T02:17:41.864Z,22.57
2018-05-31T02:20:09.528Z,23.60
2018-05-31T02:22:37.167Z,21.10
2018-05-31T02:25:04.815Z,22.00
2018-05-31T02:27:32.470Z,21.53
2018-05-31T02:30:00.145Z,22.43
2018-05-31T02:32:27.804Z,21.50
2018-05-31T02:34:55.517Z,20.73
2018-05-31T02:37:23.201Z,20.55
2018-05-31T02:39:50.878Z,20.77
2018-05-31T02:42:18.547Z,21.55
2018-05-31T02:44:46.329Z,21.95
2018-05-31T02:47:13.998Z,21.00
2018-05-31T02:49:41.678Z,21.77
2018-05-31T02:52:09.341Z,22.30
2018-05-31T02:54:36.989Z,20.95
2018-05-31T02:57:04.637Z,20.90
2018-05-31T02:59:32.300Z,21.67
2018-05-31T03:01:59.953Z,20.70
2018-05-31T03:04:27.611Z,22.77
2018-05-31T03:06:55.280Z,23.00
2018-05-31T03:09:22.951Z,20.87
2018-05-31T03:11:50.612Z,19.63
2018-05-31T03:14:18.283Z,21.20
2018-05-31T03:16:45.948Z,19.60
2018-05-31T03:19:13.605Z,20.90
2018-05-31T03:21:41.258Z,19.07
2018-05-31T03:24:08.902Z,20.47
2018-05-31T03:26:36.568Z,20.70
2018-05-31T03:29:04.243Z,19.12
2018-05-31T03:31:31.927Z,19.70
2018-05-31T03:33:59.596Z,20.17
2018-05-31T03:36:27.261Z,19.90
2018-05-31T03:38:54.966Z,18.07
2018-05-31T03:41:25.033Z,19.53
2018-05-31T03:43:52.693Z,19.37
2018-05-31T03:46:20.357Z,18.53
2018-05-31T03:48:48.021Z,18.17
2018-05-31T03:51:15.696Z,18.70
2018-05-31T03:53:43.361Z,18.87
2018-05-31T03:56:11.018Z,19.13
2018-05-31T03:58:38.670Z,17.93
2018-05-31T04:01:06.326Z,19.10
2018-05-31T04:03:33.995Z,17.80
2018-05-31T04:06:01.636Z,19.20
2018-05-31T04:08:29.338Z,18.53
2018-05-31T04:10:57.002Z,18.07
2018-05-31T04:13:24.634Z,17.77
2018-05-31T04:15:52.327Z,17.65
2018-05-31T04:18:19.958Z,18.50
2018-05-31T04:20:47.654Z,16.95
2018-05-31T04:23:15.306Z,18.03
2018-05-31T04:25:42.957Z,18.50
2018-05-31T04:28:10.770Z,16.90
2018-05-31T04:30:38.429Z,18.27
2018-05-31T04:33:06.162Z,18.10
2018-05-31T04:35:33.850Z,15.90
2018-05-31T04:38:01.908Z,16.60
2018-05-31T04:40:29.874Z,16.45
2018-05-31T04:42:57.541Z,17.53
2018-05-31T04:45:25.709Z,17.20
2018-05-31T04:47:54.430Z,17.20
2018-05-31T04:50:22.647Z,16.07
2018-05-31T04:52:50.327Z,15.25
2018-05-31T04:55:18.087Z,14.30
2018-05-31T04:57:45.780Z,16.33
2018-05-31T05:00:13.445Z,19.58
2018-05-31T05:02:41.840Z,14.57
2018-05-31T05:05:09.500Z,13.07
2018-05-31T05:07:37.173Z,13.00
2018-05-31T05:10:04.824Z,12.17
2018-05-31T05:12:32.492Z,12.90
2018-05-31T05:15:00.128Z,11.87
2018-05-31T05:17:27.781Z,13.63
2018-05-31T05:19:56.063Z,10.83
2018-05-31T05:22:23.721Z,11.40
2018-05-31T05:24:51.378Z,10.50
2018-05-31T05:27:19.045Z,11.43
2018-05-31T05:29:46.704Z,11.60
2018-05-31T05:32:14.377Z,10.97
2018-05-31T05:34:43.660Z,10.20
2018-05-31T05:37:11.305Z,11.40
2018-05-31T05:39:39.577Z,11.23
2018-05-31T05:42:07.214Z,11.13
2018-05-31T05:44:34.875Z,10.67
2018-05-31T05:47:04.192Z,12.40
2018-05-31T05:49:31.926Z,12.40
2018-05-31T05:52:00.851Z,11.63
2018-05-31T05:54:28.511Z,12.73
2018-05-31T05:56:56.811Z,13.13
2018-05-31T05:59:24.453Z,12.23
2018-05-31T06:01:54.157Z,12.53
2018-05-31T06:04:21.940Z,13.83
2018-05-31T06:06:50.018Z,13.67
2018-05-31T06:09:18.199Z,13.40
2018-05-31T06:11:45.838Z,14.40
2018-05-31T06:14:13.487Z,12.03
2018-05-31T06:16:42.849Z,14.83
2018-05-31T06:19:11.033Z,12.70
2018-05-31T06:21:39.554Z,12.77
2018-05-31T06:24:08.145Z,13.57
2018-05-31T06:26:36.742Z,14.00
2018-05-31T06:29:04.425Z,13.67
2018-05-31T06:31:32.089Z,13.97
2018-05-31T06:33:59.716Z,14.30
2018-05-31T06:36:27.376Z,14.03
2018-05-31T06:38:55.015Z,13.47
2018-05-31T06:41:22.646Z,13.43
2018-05-31T06:43:50.282Z,14.70
2018-05-31T06:46:17.924Z,13.67
2018-05-31T06:48:45.566Z,13.83
2018-05-31T06:51:13.194Z,12.60
2018-05-31T06:53:40.832Z,13.20
2018-05-31T06:56:08.467Z,13.07
2018-05-31T06:58:36.575Z,13.55
2018-05-31T07:01:04.244Z,14.03
2018-05-31T07:03:31.873Z,14.30
2018-05-31T07:05:59.496Z,13.90
2018-05-31T07:08:27.114Z,13.47
2018-05-31T07:10:54.778Z,13.50
2018-05-31T07:13:22.421Z,15.03
2018-05-31T07:15:50.077Z,14.27
2018-05-31T07:18:17.723Z,13.68
2018-05-31T07:20:45.357Z,14.50
2018-05-31T07:23:13.013Z,14.20
2018-05-31T07:25:40.630Z,14.13
2018-05-31T07:28:08.346Z,12.98
2018-05-31T07:30:36.009Z,13.50
2018-05-31T07:33:03.633Z,14.33
2018-05-31T07:35:31.276Z,14.00
2018-05-31T07:38:01.042Z,15.20
2018-05-31T07:40:28.703Z,14.57
2018-05-31T07:42:56.328Z,13.60
2018-05-31T07:45:23.966Z,13.70
2018-05-31T07:47:51.648Z,13.60
2018-05-31T07:50:19.312Z,13.83
2018-05-31T07:52:47.055Z,12.70
2018-05-31T07:55:14.685Z,15.70
2018-05-31T07:57:42.315Z,12.87
2018-05-31T08:00:09.983Z,13.35
2018-05-31T08:02:38.019Z,13.40
2018-05-31T08:05:05.662Z,13.40
2018-05-31T08:07:33.313Z,12.48
2018-05-31T08:10:00.951Z,12.50
2018-05-31T08:12:28.583Z,13.47
2018-05-31T08:14:56.243Z,13.87
2018-05-31T08:17:23.895Z,13.30
2018-05-31T08:19:51.558Z,13.00
2018-05-31T08:22:19.193Z,13.45
2018-05-31T08:24:46.828Z,13.60
2018-05-31T08:27:14.756Z,13.30
2018-05-31T08:29:42.711Z,14.87
2018-05-31T08:32:10.341Z,13.63
2018-05-31T08:34:37.968Z,13.83
2018-05-31T08:37:05.599Z,13.77
2018-05-31T08:39:33.240Z,12.70
2018-05-31T08:42:00.877Z,12.97
2018-05-31T08:44:29.370Z,14.70
2018-05-31T08:46:57.010Z,13.70
2018-05-31T08:49:24.660Z,13.97
2018-05-31T08:51:52.300Z,13.37
2018-05-31T08:54:19.934Z,13.47
2018-05-31T08:56:47.565Z,13.67
2018-05-31T08:59:15.210Z,13.67
2018-05-31T09:01:42.853Z,14.60
2018-05-31T09:04:10.470Z,12.90
2018-05-31T09:06:38.112Z,15.23
2018-05-31T09:09:06.599Z,13.70
2018-05-31T09:11:34.229Z,13.60
2018-05-31T09:14:01.888Z,14.10
2018-05-31T09:16:29.524Z,13.20
2018-05-31T09:18:57.183Z,13.38
2018-05-31T09:21:24.820Z,15.83
2018-05-31T09:23:53.183Z,15.60
2018-05-31T09:26:20.828Z,13.15
2018-05-31T09:28:48.460Z,13.33
2018-05-31T09:31:16.098Z,13.70
2018-05-31T09:33:44.544Z,15.20
2018-05-31T09:36:12.178Z,14.43
2018-05-31T09:38:39.807Z,14.20
2018-05-31T09:41:07.519Z,14.27
2018-05-31T09:43:35.124Z,13.37
2018-05-31T09:46:02.766Z,12.20
2018-05-31T09:48:30.412Z,14.02
2018-05-31T09:50:58.056Z,14.40
2018-05-31T09:53:25.682Z,13.73
2018-05-31T09:55:53.325Z,13.50
2018-05-31T09:58:20.959Z,12.75
2018-05-31T10:00:48.595Z,13.73
2018-05-31T10:03:16.534Z,12.10
2018-05-31T10:05:44.511Z,12.17
2018-05-31T10:08:12.202Z,12.25
2018-05-31T10:10:39.832Z,13.13
2018-05-31T10:13:07.471Z,12.60
2018-05-31T10:15:35.117Z,13.80
2018-05-31T10:18:02.772Z,13.63
2018-05-31T10:20:31.293Z,13.62
2018-05-31T10:22:58.929Z,13.03
2018-05-31T10:25:26.585Z,12.63
2018-05-31T10:27:54.229Z,12.40
2018-05-31T10:30:21.886Z,11.87
2018-05-31T10:32:49.535Z,12.50
2018-05-31T10:35:17.178Z,13.00
2018-05-31T10:37:44.820Z,13.30
2018-05-31T10:40:12.484Z,11.23
2018-05-31T10:42:40.126Z,12.47
2018-05-31T10:45:07.765Z,13.40
2018-05-31T10:47:35.396Z,13.37
2018-05-31T10:50:03.037Z,12.45
2018-05-31T10:52:30.680Z,13.63
2018-05-31T10:54:58.317Z,12.87
2018-05-31T10:57:25.951Z,13.17
2018-05-31T10:59:54.046Z,13.18
2018-05-31T11:02:21.766Z,13.67
2018-05-31T11:04:49.410Z,12.30
2018-05-31T11:07:17.060Z,11.87
2018-05-31T11:09:44.710Z,12.73
2018-05-31T11:12:12.350Z,12.40
2018-05-31T11:14:39.997Z,12.47
2018-05-31T11:17:08.506Z,12.20
2018-05-31T11:19:36.156Z,12.83
2018-05-31T11:22:03.821Z,13.43
2018-05-31T11:24:31.865Z,13.35
2018-05-31T11:26:59.502Z,13.80
2018-05-31T11:29:27.133Z,13.27
2018-05-31T11:31:54.770Z,13.80
2018-05-31T11:34:22.405Z,12.48
2018-05-31T11:36:50.046Z,12.20
2018-05-31T11:39:17.679Z,11.70
2018-05-31T11:41:45.326Z,11.80
2018-05-31T11:44:12.982Z,11.33
2018-05-31T11:46:40.623Z,11.40
2018-05-31T11:49:08.264Z,11.97
2018-05-31T11:51:35.894Z,12.13
2018-05-31T11:54:03.539Z,12.88
2018-05-31T11:56:31.212Z,11.10
2018-05-31T11:58:58.847Z,11.40
2018-05-31T12:01:26.479Z,12.00
2018-05-31T12:03:54.106Z,11.80
2018-05-31T12:06:21.746Z,11.30
2018-05-31T12:08:49.383Z,11.30
2018-05-31T12:11:17.035Z,10.87
2018-05-31T12:13:44.696Z,12.50
2018-05-31T12:16:12.314Z,11.43
2018-05-31T12:18:39.968Z,12.67
2018-05-31T12:21:07.615Z,12.20
2018-05-31T12:23:35.275Z,11.30
2018-05-31T12:26:02.938Z,11.23
2018-05-31T12:28:30.576Z,12.20
2018-05-31T12:30:58.207Z,11.10
2018-05-31T12:33:25.860Z,11.60
2018-05-31T12:35:53.518Z,11.23
2018-05-31T12:38:21.174Z,10.80
2018-05-31T12:40:48.801Z,10.80
2018-05-31T12:43:16.433Z,11.67
2018-05-31T12:45:44.083Z,11.00
2018-05-31T12:48:11.745Z,12.40
2018-05-31T12:50:39.381Z,12.53
2018-05-31T12:53:07.022Z,11.87
2018-05-31T12:55:34.668Z,11.73
2018-05-31T12:58:02.311Z,9.80
2018-05-31T13:00:29.978Z,10.50
2018-05-31T13:02:57.618Z,11.70
2018-05-31T13:05:25.273Z,10.80
2018-05-31T13:07:52.929Z,11.07
2018-05-31T13:10:21.453Z,10.63
2018-05-31T13:12:50.004Z,10.90
2018-05-31T13:15:17.646Z,10.00
2018-05-31T13:17:45.293Z,10.10
2018-05-31T13:20:12.943Z,10.40
2018-05-31T13:22:40.580Z,11.17
2018-05-31T13:25:08.254Z,10.67
2018-05-31T13:27:35.890Z,9.70
2018-05-31T13:30:03.545Z,11.10
2018-05-31T13:32:31.181Z,9.70
2018-05-31T13:34:58.824Z,9.33
2018-05-31T13:37:27.406Z,9.90
2018-05-31T13:39:55.035Z,9.70
2018-05-31T13:42:22.682Z,10.30
2018-05-31T13:44:50.330Z,10.93
2018-05-31T13:47:31.408Z,10.40
2018-05-31T13:49:59.043Z,9.57
2018-05-31T13:52:26.684Z,10.13
2018-05-31T13:54:54.305Z,8.87
2018-05-31T13:57:21.952Z,9.83
2018-05-31T13:59:49.593Z,10.10
2018-05-31T14:02:17.246Z,9.50
2018-05-31T14:04:44.901Z,9.93
2018-05-31T14:07:12.544Z,9.93
2018-05-31T14:09:40.190Z,10.13
2018-05-31T14:12:07.893Z,9.07
2018-05-31T14:14:35.528Z,9.93
2018-05-31T14:17:03.213Z,9.93
2018-05-31T14:19:30.873Z,9.47
2018-05-31T14:21:58.529Z,10.20
2018-05-31T14:24:26.182Z,9.60
2018-05-31T14:26:53.813Z,9.97
2018-05-31T14:29:21.450Z,9.30
2018-05-31T14:31:49.097Z,9.53
2018-05-31T14:34:16.725Z,8.57
2018-05-31T14:36:44.352Z,8.23
2018-05-31T14:39:11.983Z,9.10
2018-05-31T14:41:39.668Z,10.10
2018-05-31T14:44:07.318Z,9.23
2018-05-31T14:46:34.955Z,9.20
2018-05-31T14:49:02.611Z,9.53
2018-05-31T14:51:30.269Z,9.07
2018-05-31T14:53:57.925Z,8.82
2018-05-31T14:56:25.585Z,9.40
2018-05-31T14:58:53.282Z,9.97
2018-05-31T15:01:20.911Z,9.07
2018-05-31T15:03:48.548Z,9.40
2018-05-31T15:06:16.186Z,9.03
2018-05-31T15:08:43.817Z,8.97
2018-05-31T15:11:11.455Z,9.60
2018-05-31T15:13:39.109Z,8.40
2018-05-31T15:16:22.838Z,8.90
2018-05-31T15:18:50.481Z,8.90
2018-05-31T15:21:18.122Z,9.17
2018-05-31T15:23:45.752Z,8.97
2018-05-31T15:26:13.392Z,9.00
2018-05-31T15:28:41.045Z,9.00
2018-05-31T15:31:08.715Z,9.20
2018-05-31T15:33:36.363Z,8.30
2018-05-31T15:36:04.084Z,8.43
2018-05-31T15:38:31.692Z,8.93
2018-05-31T15:40:59.360Z,8.97
2018-05-31T15:43:26.982Z,9.30
2018-05-31T15:45:54.639Z,8.53
2018-05-31T15:48:22.271Z,8.37
2018-05-31T15:50:49.909Z,8.70
2018-05-31T15:53:17.545Z,8.00
2018-05-31T15:55:45.166Z,8.90
2018-05-31T15:58:12.881Z,7.68
2018-05-31T16:00:40.513Z,8.87
2018-05-31T16:03:08.137Z,8.10
2018-05-31T16:05:35.784Z,8.10
2018-05-31T16:08:03.411Z,7.67
2018-05-31T16:10:31.056Z,8.87
2018-05-31T16:12:58.712Z,8.10
2018-05-31T16:15:26.340Z,8.60
2018-05-31T16:17:53.973Z,7.97
2018-05-31T16:20:21.602Z,8.27
2018-05-31T16:22:49.231Z,7.20
2018-05-31T16:25:16.892Z,7.80
2018-05-31T16:27:44.511Z,7.20
2018-05-31T16:30:12.145Z,7.53
2018-05-31T16:32:39.765Z,7.73
2018-05-31T16:35:09.140Z,7.73
2018-05-31T16:37:36.763Z,8.03
2018-05-31T16:40:04.403Z,7.70
2018-05-31T16:42:32.042Z,7.80
2018-05-31T16:44:59.684Z,8.03
2018-05-31T16:47:28.197Z,7.33
2018-05-31T16:49:55.969Z,7.63
2018-05-31T16:52:23.816Z,7.60
2018-05-31T16:54:51.442Z,6.90
2018-05-31T16:57:19.073Z,8.50
2018-05-31T16:59:46.835Z,7.10
2018-05-31T17:02:14.454Z,7.43
2018-05-31T17:04:42.102Z,7.20
2018-05-31T17:07:09.758Z,7.27
2018-05-31T17:09:37.387Z,7.00
2018-05-31T17:12:05.054Z,7.50
2018-05-31T17:14:32.703Z,8.07
2018-05-31T17:17:00.331Z,7.67
2018-05-31T17:19:27.956Z,6.97
2018-05-31T17:21:55.612Z,7.73
2018-05-31T17:24:23.270Z,7.47
2018-05-31T17:26:51.552Z,7.20
2018-05-31T17:29:19.191Z,6.80
2018-05-31T17:31:47.264Z,7.50
2018-05-31T17:34:14.889Z,7.87
2018-05-31T17:36:42.543Z,7.10
2018-05-31T17:39:10.166Z,6.93
2018-05-31T17:41:37.807Z,6.37
2018-05-31T17:44:05.431Z,7.27
2018-05-31T17:46:33.461Z,6.33
2018-05-31T17:49:01.129Z,6.00
2018-05-31T17:51:28.762Z,7.13
2018-05-31T17:53:56.386Z,6.90
2018-05-31T17:56:24.028Z,6.60
2018-05-31T17:58:51.655Z,6.30
2018-05-31T18:01:19.525Z,7.17
2018-05-31T18:03:47.133Z,7.00
2018-05-31T18:06:14.769Z,7.50
2018-05-31T18:08:42.422Z,6.62
2018-05-31T18:11:10.051Z,6.63
2018-05-31T18:13:37.684Z,6.00
2018-05-31T18:16:05.303Z,6.27
2018-05-31T18:18:32.946Z,7.47
2018-05-31T18:21:00.571Z,6.70
2018-05-31T18:23:30.771Z,6.50
2018-05-31T18:25:58.506Z,6.40
2018-05-31T18:28:26.148Z,7.40
2018-05-31T18:30:53.795Z,6.53
2018-05-31T18:33:21.472Z,6.73
2018-05-31T18:35:49.144Z,6.28
2018-05-31T18:38:18.572Z,6.65
2018-05-31T18:40:46.181Z,6.40
2018-05-31T18:43:13.823Z,6.57
2018-05-31T18:45:41.498Z,6.93
2018-05-31T18:48:10.317Z,6.22
2018-05-31T18:50:37.942Z,5.60
2018-05-31T18:53:05.594Z,6.37
2018-05-31T18:55:33.235Z,5.65
2018-05-31T18:58:00.856Z,5.80
2018-05-31T19:00:28.509Z,6.80
2018-05-31T19:02:56.141Z,6.53
2018-05-31T19:05:23.794Z,6.10
2018-05-31T19:07:51.493Z,6.30
2018-05-31T19:10:26.077Z,6.60
2018-05-31T19:12:59.518Z,6.37
2018-05-31T19:15:27.188Z,5.97
2018-05-31T19:17:54.877Z,6.60
2018-05-31T19:20:22.537Z,6.72
2018-05-31T19:22:50.197Z,5.77
2018-05-31T19:25:21.308Z,5.73
2018-05-31T19:27:48.946Z,5.90
2018-05-31T19:30:22.117Z,7.03
2018-05-31T19:32:50.279Z,5.77
2018-05-31T19:35:24.315Z,5.50
2018-05-31T19:37:52.356Z,5.47
2018-05-31T19:40:19.991Z,7.40
2018-05-31T19:42:53.685Z,6.70
2018-05-31T19:45:21.327Z,6.53
2018-05-31T19:47:50.204Z,5.05
2018-05-31T19:50:18.332Z,5.70
2018-05-31T19:52:54.555Z,6.95
2018-05-31T19:55:22.230Z,6.70
2018-05-31T19:57:55.330Z,6.20
2018-05-31T20:00:29.260Z,6.00
2018-05-31T20:03:02.469Z,6.93
2018-05-31T20:05:30.101Z,5.87
2018-05-31T20:07:57.828Z,5.73
2018-05-31T20:10:25.482Z,5.90
2018-05-31T20:12:53.132Z,7.62
2018-05-31T20:15:20.795Z,5.80
2018-05-31T20:17:48.430Z,6.70
2018-05-31T20:20:16.068Z,6.27
2018-05-31T20:22:43.714Z,6.65
2018-05-31T20:25:11.353Z,6.40
2018-05-31T20:27:39.014Z,6.05
2018-05-31T20:30:06.671Z,6.00
2018-05-31T20:32:34.377Z,6.13
2018-05-31T20:35:02.000Z,6.33
2018-05-31T20:37:29.653Z,6.17
2018-05-31T20:39:57.293Z,6.07
2018-05-31T20:42:24.941Z,6.67
2018-05-31T20:44:52.588Z,6.73
2018-05-31T20:47:20.215Z,7.30
2018-05-31T20:49:47.865Z,6.10
2018-05-31T20:52:15.519Z,6.50
2018-05-31T20:54:43.149Z,5.60
2018-05-31T20:57:10.788Z,5.57
2018-05-31T20:59:38.448Z,6.80
2018-05-31T21:02:06.104Z,6.83
2018-05-31T21:04:33.741Z,6.40
2018-05-31T21:07:01.382Z,6.40
2018-05-31T21:09:29.036Z,6.30
2018-05-31T21:11:56.699Z,6.70
2018-05-31T21:14:24.330Z,6.93
2018-05-31T21:16:51.949Z,6.60
2018-05-31T21:19:19.594Z,7.07
2018-05-31T21:21:47.248Z,6.10
2018-05-31T21:24:14.874Z,6.37
2018-05-31T21:26:42.540Z,7.60
2018-05-31T21:29:10.187Z,7.77
2018-05-31T21:31:38.586Z,6.87
2018-05-31T21:34:06.747Z,6.90
2018-05-31T21:36:34.387Z,7.60
2018-05-31T21:39:02.041Z,7.67
2018-05-31T21:41:29.670Z,7.00
2018-05-31T21:43:57.306Z,7.28
2018-05-31T21:46:24.934Z,6.90
2018-05-31T21:48:52.556Z,7.37
2018-05-31T21:51:20.210Z,8.10
2018-05-31T21:53:47.876Z,7.10
2018-05-31T21:56:15.776Z,7.10
2018-05-31T21:58:43.431Z,7.00
2018-05-31T22:01:11.082Z,6.70
2018-05-31T22:03:38.710Z,9.30
2018-05-31T22:06:06.375Z,7.30
2018-05-31T22:08:34.019Z,6.73
2018-05-31T22:11:01.651Z,7.07
2018-05-31T22:13:29.294Z,7.60
2018-05-31T22:15:56.941Z,6.90
2018-05-31T22:18:24.579Z,7.00
2018-05-31T22:20:52.215Z,7.50
2018-05-31T22:23:19.847Z,6.93
2018-05-31T22:25:47.466Z,6.83
2018-05-31T22:28:15.096Z,7.50
2018-05-31T22:30:42.730Z,6.27
2018-05-31T22:33:10.401Z,6.80
2018-05-31T22:35:38.023Z,6.07
2018-05-31T22:38:05.659Z,8.68
2018-05-31T22:40:33.300Z,7.90
2018-05-31T22:43:00.926Z,7.30
2018-05-31T22:45:28.553Z,7.20
2018-05-31T22:47:56.202Z,7.67
2018-05-31T22:50:23.824Z,6.83
2018-05-31T22:52:51.451Z,7.37
2018-05-31T22:55:19.096Z,6.93
2018-05-31T22:57:46.745Z,6.50
2018-05-31T23:00:15.899Z,7.70
2018-05-31T23:02:43.584Z,7.60
2018-05-31T23:05:11.206Z,7.95
2018-05-31T23:07:38.836Z,7.37
2018-05-31T23:10:06.457Z,8.30
2018-05-31T23:12:34.081Z,7.63
2018-05-31T23:15:01.717Z,7.90
2018-05-31T23:17:29.350Z,7.30
2018-05-31T23:19:56.974Z,6.80
2018-05-31T23:22:24.616Z,6.90
2018-05-31T23:24:52.252Z,7.30
2018-05-31T23:27:19.887Z,8.30
2018-05-31T23:29:47.510Z,6.70
2018-05-31T23:32:15.140Z,7.70
2018-05-31T23:34:42.761Z,7.05
2018-05-31T23:37:10.394Z,7.30
2018-05-31T23:39:38.022Z,7.30
2018-05-31T23:42:05.659Z,6.63
2018-05-31T23:44:33.278Z,7.57
2018-05-31T23:47:00.905Z,7.07
2018-05-31T23:49:28.524Z,6.57
2018-05-31T23:51:56.169Z,7.10
2018-05-31T23:54:23.908Z,6.62
2018-05-31T23:56:51.528Z,7.50
2018-05-31T23:59:19.157Z,6.87
